VCV3351 SAEZ-SVMI
Flight info
| Callsign | VCV3351 |
|---|---|
| Flight time | N/A |
| Altitude | 36000 |
| Route | BIVAM2A BIVAM UN775 PILCO UM784 BOLET/N0480F380 UL404 VIR/N0485F370 UL322 VAROM/N0483F380 UL793 UDIDI/N0486F370 UL793 MUPEG/N0480F390 UL793 PUBIT/N0484F380 UL793 LOGON/N0480F390 UL793 EDPAL UQ235 PBL ALDAK1 |
| Aircraft | A346/H-SDE2E3FGHIJ3J4J5M1RWXY/LB1D1 |
Departure
| Time | 2026-05-07 01:38 |
|---|---|
| Airport | Ezeiza International Airport - Ministro Pistarini (SAEZ) |
Arrival
| Time | N/A |
|---|---|
| Airport | Maiquetía Simón Bolívar International Airport (SVMI) |
| Time | Latitude | Longitude | Altitude | Speed | Heading |
|---|---|---|---|---|---|
| 2026-05-07 01:02 | -34.81659 | -58.54362 | 87 ft | 0 kts | 11° |
| 2026-05-07 01:24 | -34.81677 | -58.54367 | 86 ft | 4 kts | 13° |
| 2026-05-07 01:24 | -34.81703 | -58.54375 | 88 ft | 4 kts | 20° |
| 2026-05-07 01:24 | -34.81727 | -58.54385 | 86 ft | 4 kts | 7° |
| 2026-05-07 01:24 | -34.81747 | -58.54382 | 86 ft | 4 kts | 340° |
| 2026-05-07 01:25 | -34.81761 | -58.54371 | 87 ft | 4 kts | 302° |
| 2026-05-07 01:25 | -34.81767 | -58.54346 | 88 ft | 4 kts | 276° |
| 2026-05-07 01:25 | -34.81770 | -58.54318 | 87 ft | 1 kts | 278° |
| 2026-05-07 01:29 | -34.81768 | -58.54324 | 87 ft | 4 kts | 295° |
| 2026-05-07 01:30 | -34.81746 | -58.54333 | 89 ft | 1 kts | 26° |
| 2026-05-07 01:30 | -34.81744 | -58.54295 | 88 ft | 9 kts | 136° |
| 2026-05-07 01:30 | -34.81779 | -58.54220 | 87 ft | 11 kts | 108° |
| 2026-05-07 01:30 | -34.81793 | -58.54117 | 87 ft | 13 kts | 94° |
| 2026-05-07 01:31 | -34.81775 | -58.54007 | 87 ft | 14 kts | 66° |
| 2026-05-07 01:31 | -34.81724 | -58.53897 | 88 ft | 16 kts | 59° |
| 2026-05-07 01:31 | -34.81694 | -58.53787 | 87 ft | 13 kts | 108° |
| 2026-05-07 01:31 | -34.81755 | -58.53717 | 87 ft | 13 kts | 157° |
| 2026-05-07 01:32 | -34.81840 | -58.53666 | 88 ft | 14 kts | 154° |
| 2026-05-07 01:32 | -34.81935 | -58.53611 | 86 ft | 15 kts | 154° |
| 2026-05-07 01:32 | -34.82035 | -58.53553 | 84 ft | 16 kts | 156° |
| 2026-05-07 01:32 | -34.82140 | -58.53497 | 89 ft | 16 kts | 156° |
| 2026-05-07 01:33 | -34.82234 | -58.53446 | 93 ft | 15 kts | 155° |
| 2026-05-07 01:33 | -34.82353 | -58.53380 | 90 ft | 24 kts | 155° |
| 2026-05-07 01:33 | -34.82521 | -58.53284 | 85 ft | 27 kts | 154° |
| 2026-05-07 01:33 | -34.82698 | -58.53182 | 85 ft | 28 kts | 155° |
| 2026-05-07 01:34 | -34.82882 | -58.53080 | 86 ft | 29 kts | 155° |
| 2026-05-07 01:34 | -34.83068 | -58.52976 | 88 ft | 30 kts | 155° |
| 2026-05-07 01:34 | -34.83196 | -58.52906 | 88 ft | 30 kts | 155° |
| 2026-05-07 01:34 | -34.83387 | -58.52799 | 86 ft | 30 kts | 155° |
| 2026-05-07 01:35 | -34.83543 | -58.52704 | 85 ft | 13 kts | 137° |
| 2026-05-07 01:35 | -34.83547 | -58.52665 | 87 ft | 2 kts | 74° |
| 2026-05-07 01:35 | -34.83540 | -58.52638 | 86 ft | 3 kts | 72° |
| 2026-05-07 01:35 | -34.83536 | -58.52622 | 86 ft | 0 kts | 71° |
| 2026-05-07 01:36 | -34.83535 | -58.52620 | 86 ft | 3 kts | 71° |
| 2026-05-07 01:36 | -34.83519 | -58.52562 | 91 ft | 8 kts | 71° |
| 2026-05-07 01:36 | -34.83483 | -58.52496 | 95 ft | 11 kts | 17° |
| 2026-05-07 01:36 | -34.83407 | -58.52500 | 93 ft | 6 kts | 341° |
| 2026-05-07 01:37 | -34.83402 | -58.52502 | 94 ft | 0 kts | 343° |
| 2026-05-07 01:37 | -34.83398 | -58.52503 | 94 ft | 5 kts | 343° |
| 2026-05-07 01:37 | -34.83177 | -58.52582 | 93 ft | 63 kts | 344° |
| 2026-05-07 01:37 | -34.82569 | -58.52790 | 90 ft | 116 kts | 344° |
| 2026-05-07 01:38 | -34.81615 | -58.53114 | 92 ft | 161 kts | 343° |
| 2026-05-07 01:38 | -34.80446 | -58.53543 | 354 ft | 178 kts | 344° |
| 2026-05-07 01:38 | -34.79256 | -58.53976 | 869 ft | 181 kts | 342° |
| 2026-05-07 01:38 | -34.78034 | -58.54401 | 1384 ft | 185 kts | 338° |
| 2026-05-07 01:39 | -34.76801 | -58.54859 | 1997 ft | 184 kts | 332° |
| 2026-05-07 01:39 | -34.75722 | -58.55640 | 2583 ft | 184 kts | 313° |
| 2026-05-07 01:39 | -34.75238 | -58.56506 | 2937 ft | 191 kts | 294° |
| 2026-05-07 01:40 | -34.75687 | -58.60865 | 4139 ft | 241 kts | 261° |
| 2026-05-07 01:40 | -34.76255 | -58.63000 | 4756 ft | 252 kts | 260° |
| 2026-05-07 01:40 | -34.76822 | -58.65048 | 5396 ft | 255 kts | 259° |
| 2026-05-07 01:40 | -34.77413 | -58.67071 | 6025 ft | 252 kts | 258° |
| 2026-05-07 01:41 | -34.78022 | -58.69059 | 6625 ft | 253 kts | 258° |
| 2026-05-07 01:41 | -34.78326 | -58.71137 | 7229 ft | 245 kts | 284° |
| 2026-05-07 01:41 | -34.77668 | -58.72986 | 7903 ft | 242 kts | 308° |
| 2026-05-07 01:41 | -34.76425 | -58.74377 | 8649 ft | 247 kts | 326° |
| 2026-05-07 01:42 | -34.74779 | -58.75151 | 9355 ft | 257 kts | 342° |
| 2026-05-07 01:42 | -34.73007 | -58.75581 | 10010 ft | 261 kts | 342° |
| 2026-05-07 01:42 | -34.71205 | -58.76033 | 10394 ft | 275 kts | 342° |
| 2026-05-07 01:42 | -34.69259 | -58.76528 | 10692 ft | 292 kts | 343° |
| 2026-05-07 01:43 | -34.67235 | -58.77041 | 10986 ft | 308 kts | 343° |
| 2026-05-07 01:43 | -34.65080 | -58.77585 | 11271 ft | 324 kts | 343° |
| 2026-05-07 01:43 | -34.62822 | -58.78154 | 11563 ft | 340 kts | 344° |
| 2026-05-07 01:43 | -34.60445 | -58.78751 | 11918 ft | 352 kts | 344° |
| 2026-05-07 01:44 | -34.58016 | -58.79358 | 12530 ft | 357 kts | 344° |
| 2026-05-07 01:44 | -34.55600 | -58.79961 | 13207 ft | 360 kts | 344° |
| 2026-05-07 01:44 | -34.53124 | -58.80579 | 13802 ft | 363 kts | 344° |
| 2026-05-07 01:44 | -34.50630 | -58.81204 | 14380 ft | 367 kts | 344° |
| 2026-05-07 01:45 | -34.48113 | -58.81833 | 14978 ft | 369 kts | 344° |
| 2026-05-07 01:45 | -34.45609 | -58.82461 | 15475 ft | 372 kts | 344° |
| 2026-05-07 01:45 | -34.43056 | -58.83100 | 15968 ft | 374 kts | 344° |
| 2026-05-07 01:45 | -34.40522 | -58.83735 | 16458 ft | 377 kts | 344° |
| 2026-05-07 01:46 | -34.37922 | -58.84385 | 16963 ft | 378 kts | 344° |
| 2026-05-07 01:46 | -34.35360 | -58.85026 | 17474 ft | 380 kts | 344° |
| 2026-05-07 01:46 | -34.32741 | -58.85681 | 17998 ft | 383 kts | 344° |
| 2026-05-07 01:46 | -34.30151 | -58.86328 | 18435 ft | 386 kts | 344° |
| 2026-05-07 01:47 | -34.27500 | -58.86990 | 18912 ft | 389 kts | 344° |
| 2026-05-07 01:47 | -34.24829 | -58.87657 | 19386 ft | 392 kts | 344° |
| 2026-05-07 01:47 | -34.22175 | -58.88319 | 19854 ft | 394 kts | 344° |
| 2026-05-07 01:47 | -34.19471 | -58.88993 | 20343 ft | 397 kts | 344° |
| 2026-05-07 01:48 | -34.16728 | -58.89680 | 20825 ft | 401 kts | 344° |
| 2026-05-07 01:48 | -34.14008 | -58.90358 | 21319 ft | 404 kts | 344° |
| 2026-05-07 01:48 | -34.11231 | -58.91048 | 21835 ft | 407 kts | 344° |
| 2026-05-07 01:48 | -34.08460 | -58.91736 | 22351 ft | 410 kts | 344° |
| 2026-05-07 01:49 | -34.05650 | -58.92434 | 22880 ft | 413 kts | 344° |
| 2026-05-07 01:49 | -34.02816 | -58.93138 | 23344 ft | 416 kts | 344° |
| 2026-05-07 01:49 | -33.99963 | -58.93846 | 23703 ft | 421 kts | 343° |
| 2026-05-07 01:49 | -33.97114 | -58.94610 | 24075 ft | 422 kts | 341° |
| 2026-05-07 01:50 | -33.94271 | -58.95549 | 24486 ft | 424 kts | 339° |
| 2026-05-07 01:50 | -33.91423 | -58.96531 | 24910 ft | 426 kts | 339° |
| 2026-05-07 01:50 | -33.88551 | -58.97517 | 25321 ft | 429 kts | 339° |
| 2026-05-07 01:50 | -33.85707 | -58.98491 | 25727 ft | 432 kts | 339° |
| 2026-05-07 01:51 | -33.82803 | -58.99485 | 26132 ft | 434 kts | 339° |
| 2026-05-07 01:51 | -33.79883 | -59.00485 | 26538 ft | 436 kts | 339° |
| 2026-05-07 01:51 | -33.76956 | -59.01487 | 26908 ft | 439 kts | 339° |
| 2026-05-07 01:51 | -33.74008 | -59.02497 | 27369 ft | 440 kts | 339° |
| 2026-05-07 01:52 | -33.71058 | -59.03504 | 27873 ft | 441 kts | 339° |
| 2026-05-07 01:52 | -33.68137 | -59.04501 | 28261 ft | 443 kts | 338° |
| 2026-05-07 01:52 | -33.65175 | -59.05512 | 28781 ft | 442 kts | 338° |
| 2026-05-07 01:52 | -33.62221 | -59.06518 | 29408 ft | 439 kts | 338° |
| 2026-05-07 01:53 | -33.59286 | -59.07516 | 29972 ft | 436 kts | 338° |
| 2026-05-07 01:53 | -33.56368 | -59.08509 | 30472 ft | 434 kts | 338° |
| 2026-05-07 01:53 | -33.53467 | -59.09496 | 30993 ft | 431 kts | 338° |
| 2026-05-07 01:53 | -33.50602 | -59.10469 | 31580 ft | 427 kts | 337° |
| 2026-05-07 01:54 | -33.47789 | -59.11424 | 32110 ft | 424 kts | 337° |
| 2026-05-07 01:54 | -33.44952 | -59.12387 | 32587 ft | 422 kts | 337° |
| 2026-05-07 01:54 | -33.42126 | -59.13348 | 33035 ft | 420 kts | 336° |
| 2026-05-07 01:54 | -33.39318 | -59.14302 | 33487 ft | 419 kts | 336° |